createdAt,value
2023-05-13T00:39:02.307Z,16.23
2023-05-13T00:39:56.277Z,16.28
2023-05-13T00:40:53.286Z,16.37
2023-05-13T00:41:47.263Z,16.24
2023-05-13T00:42:41.270Z,16.36
2023-05-13T00:43:35.278Z,16.18
2023-05-13T00:44:29.287Z,16.22
2023-05-13T00:45:24.288Z,16.10
2023-05-13T00:46:18.347Z,16.18
2023-05-13T00:47:13.266Z,16.18
2023-05-13T00:48:07.282Z,16.28
2023-05-13T00:49:01.282Z,16.07
2023-05-13T00:49:48.353Z,16.12
2023-05-13T00:50:22.682Z,16.25
2023-05-13T00:51:11.283Z,16.25
2023-05-13T00:51:45.469Z,16.19
2023-05-13T00:52:34.571Z,16.20
2023-05-13T00:53:10.352Z,16.20
2023-05-13T00:53:58.281Z,16.24
2023-05-13T00:54:32.368Z,16.19
2023-05-13T00:55:14.280Z,16.09
2023-05-13T00:55:54.368Z,16.15
2023-05-13T00:56:34.268Z,16.22
2023-05-13T00:57:14.360Z,16.21
2023-05-13T00:57:54.268Z,16.14
2023-05-13T00:58:34.378Z,16.26
2023-05-13T00:59:14.261Z,16.18
2023-05-13T00:59:54.413Z,16.02
2023-05-13T01:00:37.290Z,16.07
2023-05-13T01:01:47.427Z,16.12
2023-05-13T01:02:41.395Z,16.12
2023-05-13T01:04:15.764Z,16.19
2023-05-13T01:05:25.256Z,16.10
2023-05-13T01:06:57.295Z,16.16
2023-05-13T01:07:47.318Z,16.04
2023-05-13T01:09:10.273Z,16.11
2023-05-13T01:10:12.918Z,16.11
2023-05-13T01:11:08.261Z,16.05
2023-05-13T01:11:47.347Z,16.09
2023-05-13T01:12:43.293Z,16.10
2023-05-13T01:13:31.351Z,15.98
2023-05-13T01:14:30.219Z,16.04
2023-05-13T01:36:55.255Z,15.48
2023-05-13T01:40:54.231Z,15.63
2023-05-13T02:14:36.268Z,15.45
2023-05-13T02:15:30.227Z,15.37
2023-05-13T02:16:29.252Z,15.28
2023-05-13T02:17:24.405Z,15.39
2023-05-13T02:18:18.202Z,15.18
2023-05-13T02:19:14.189Z,15.32
2023-05-13T02:20:01.201Z,15.32
2023-05-13T02:20:35.350Z,15.38
2023-05-13T02:21:22.165Z,15.35
2023-05-13T02:21:56.561Z,15.26
2023-05-13T02:22:43.208Z,15.31
2023-05-13T02:23:17.713Z,15.16
2023-05-13T02:24:05.211Z,15.34
2023-05-13T02:24:40.424Z,15.28
2023-05-13T02:25:20.221Z,15.24
2023-05-13T02:26:00.393Z,15.25
2023-05-13T02:26:41.175Z,15.14
2023-05-13T02:27:21.259Z,15.06
2023-05-13T02:28:04.166Z,15.13
2023-05-13T02:28:44.356Z,14.95
2023-05-13T02:29:24.174Z,15.22
2023-05-13T02:30:04.280Z,15.08
2023-05-13T02:30:45.181Z,15.20
2023-05-13T02:31:25.544Z,15.19
2023-05-13T02:32:05.189Z,15.17
2023-05-13T02:32:45.383Z,15.11
2023-05-13T02:33:25.162Z,15.07
2023-05-13T02:34:05.239Z,15.10
2023-05-13T02:34:46.184Z,15.06
2023-05-13T02:35:29.603Z,15.08
2023-05-13T02:36:09.192Z,15.04
2023-05-13T02:36:49.655Z,14.98
2023-05-13T02:37:29.246Z,15.03
2023-05-13T02:38:09.259Z,14.96
2023-05-13T02:38:50.223Z,14.97
2023-05-13T02:39:30.236Z,15.00
2023-05-13T02:40:18.162Z,14.83
2023-05-13T02:40:58.233Z,14.97
2023-05-13T02:41:39.195Z,15.04
2023-05-13T02:42:19.315Z,14.91
2023-05-13T02:43:00.170Z,14.99
2023-05-13T02:43:40.411Z,14.91
2023-05-13T02:44:20.154Z,14.95
2023-05-13T02:45:00.572Z,15.00
2023-05-13T02:45:41.171Z,14.90
2023-05-13T02:46:21.271Z,14.86
2023-05-13T02:47:02.166Z,14.91
2023-05-13T02:48:08.152Z,15.00
2023-05-13T02:55:59.213Z,14.97
2023-05-13T02:56:36.140Z,14.81
2023-05-13T02:57:23.142Z,14.84
2023-05-13T02:57:56.958Z,14.93
2023-05-13T02:58:44.144Z,14.95
2023-05-13T03:00:26.121Z,14.95
2023-05-13T03:01:08.264Z,14.91
2023-05-13T03:01:48.329Z,14.90
2023-05-13T03:02:35.248Z,14.93
2023-05-13T03:03:09.279Z,14.94
2023-05-13T03:03:57.158Z,14.89
2023-05-13T03:04:31.229Z,14.91
2023-05-13T03:05:18.130Z,14.74
2023-05-13T03:05:52.237Z,14.78
2023-05-13T03:06:33.142Z,14.67
2023-05-13T03:07:17.323Z,14.78
2023-05-13T03:08:00.172Z,14.81
2023-05-13T03:08:40.316Z,14.70
2023-05-13T03:09:21.146Z,14.78
2023-05-13T03:10:01.247Z,14.78
2023-05-13T03:10:42.132Z,14.80
2023-05-13T03:11:22.260Z,14.69
2023-05-13T03:13:22.723Z,14.77
2023-05-13T03:14:10.160Z,14.77
2023-05-13T03:19:44.109Z,14.85
2023-05-13T03:20:24.301Z,14.82
2023-05-13T03:21:05.139Z,14.74
2023-05-13T03:22:31.307Z,14.86
2023-05-13T03:24:13.134Z,14.71
2023-05-13T03:24:47.259Z,14.74
2023-05-13T03:25:21.031Z,14.66
2023-05-13T03:26:01.108Z,14.78
2023-05-13T03:26:35.422Z,14.64
2023-05-13T03:27:08.947Z,14.77
2023-05-13T03:27:49.125Z,14.67
2023-05-13T03:28:23.212Z,14.52
2023-05-13T03:28:56.965Z,14.66
2023-05-13T03:29:38.154Z,14.65
2023-05-13T03:30:13.259Z,14.51
2023-05-13T03:30:46.956Z,14.53
2023-05-13T03:31:27.161Z,14.51
2023-05-13T03:32:01.234Z,14.58
2023-05-13T03:32:35.729Z,14.60
2023-05-13T03:33:16.110Z,14.61
2023-05-13T03:33:50.215Z,14.65
2023-05-13T03:34:23.836Z,14.70
2023-05-13T03:35:07.165Z,14.72
2023-05-13T03:35:41.746Z,14.66
2023-05-13T03:36:15.888Z,14.72
2023-05-13T03:36:56.187Z,14.71
2023-05-13T03:37:31.244Z,14.53
2023-05-13T03:38:04.946Z,14.68
2023-05-13T03:38:45.092Z,14.71
2023-05-13T03:39:19.196Z,14.63
2023-05-13T03:39:52.894Z,14.75
2023-05-13T03:40:33.126Z,14.66
2023-05-13T03:41:07.214Z,14.67
2023-05-13T03:41:42.096Z,14.69
2023-05-13T03:42:22.114Z,14.72
2023-05-13T03:42:56.189Z,14.61
2023-05-13T03:43:29.840Z,14.59
2023-05-13T03:44:11.092Z,14.72
2023-05-13T03:44:45.204Z,14.62
2023-05-13T03:45:19.057Z,14.61
2023-05-13T03:45:59.111Z,14.71
2023-05-13T03:52:52.161Z,14.65
2023-05-13T03:53:25.961Z,14.72
2023-05-13T03:54:14.095Z,14.55
2023-05-13T03:54:47.874Z,14.64
2023-05-13T03:55:35.172Z,14.65
2023-05-13T03:56:08.924Z,14.75
2023-05-13T03:56:56.158Z,14.59
2023-05-13T03:57:29.816Z,14.46
2023-05-13T03:58:26.116Z,14.56
2023-05-13T03:58:59.828Z,14.55
2023-05-13T03:59:47.240Z,14.42
2023-05-13T04:00:21.544Z,14.42
2023-05-13T04:01:09.084Z,14.44
2023-05-13T04:01:42.864Z,14.44
2023-05-13T04:02:55.202Z,14.61
2023-05-13T04:03:42.120Z,14.49
2023-05-13T04:04:29.501Z,14.52
2023-05-13T04:05:16.144Z,14.55
2023-05-13T04:05:52.482Z,14.45
2023-05-13T04:06:39.085Z,14.33
2023-05-13T04:07:12.882Z,14.37
2023-05-13T04:08:00.151Z,14.39
2023-05-13T04:08:34.379Z,14.48
2023-05-13T04:10:12.369Z,14.60
2023-05-13T04:10:48.118Z,14.54
2023-05-13T04:11:29.081Z,14.59
2023-05-13T04:12:03.568Z,14.46
2023-05-13T04:12:40.585Z,14.55
2023-05-13T04:13:20.093Z,14.44
2023-05-13T04:13:54.244Z,14.43
2023-05-13T04:14:34.109Z,14.43
2023-05-13T04:15:15.223Z,14.36
2023-05-13T04:15:55.075Z,14.49
2023-05-13T04:16:35.268Z,14.51
2023-05-13T04:17:15.161Z,14.59
2023-05-13T04:17:56.280Z,14.67
2023-05-13T04:18:38.112Z,14.57
2023-05-13T04:19:18.227Z,14.55
2023-05-13T04:20:02.208Z,14.49
2023-05-13T04:20:45.235Z,14.53
2023-05-13T04:21:25.117Z,14.39
2023-05-13T04:22:06.174Z,14.51
2023-05-13T04:22:46.060Z,14.55
2023-05-13T04:23:26.156Z,14.56
2023-05-13T04:24:06.072Z,14.57
2023-05-13T04:24:46.137Z,14.46
2023-05-13T04:25:26.109Z,14.48
2023-05-13T04:26:07.170Z,14.47
2023-05-13T04:26:47.086Z,14.44
2023-05-13T04:27:27.159Z,14.51
2023-05-13T04:28:07.071Z,14.43
2023-05-13T04:28:49.265Z,14.48
2023-05-13T04:29:29.058Z,14.60
2023-05-13T04:30:10.269Z,14.70
2023-05-13T04:30:50.071Z,14.77
2023-05-13T04:31:30.200Z,14.70
2023-05-13T04:32:11.211Z,14.66
2023-05-13T04:32:51.388Z,14.61
2023-05-13T04:33:31.071Z,14.71
2023-05-13T04:34:12.235Z,14.86
2023-05-13T04:34:52.069Z,14.79
2023-05-13T04:35:32.164Z,14.88
2023-05-13T04:36:15.018Z,14.79
2023-05-13T04:36:55.214Z,14.81
2023-05-13T04:37:35.053Z,14.76
2023-05-13T04:38:16.203Z,14.90
2023-05-13T04:38:56.078Z,15.00
2023-05-13T04:39:37.163Z,14.91
2023-05-13T04:40:18.060Z,14.97
2023-05-13T04:40:59.147Z,14.97
2023-05-13T04:41:39.080Z,15.03
2023-05-13T04:42:22.190Z,15.11
2023-05-13T04:43:02.051Z,15.02
2023-05-13T04:43:44.182Z,15.21
2023-05-13T04:44:24.033Z,15.15
2023-05-13T04:45:04.174Z,15.25
2023-05-13T04:45:45.057Z,15.25
2023-05-13T04:46:28.144Z,15.36
2023-05-13T04:47:09.076Z,15.26
2023-05-13T04:47:49.164Z,15.32
2023-05-13T04:48:29.054Z,15.33
2023-05-13T04:49:10.140Z,15.33
2023-05-13T04:49:50.034Z,15.47
2023-05-13T04:50:31.919Z,15.54
2023-05-13T04:51:13.023Z,15.46
2023-05-13T04:51:53.155Z,15.47
2023-05-13T04:52:33.140Z,15.49
2023-05-13T04:53:13.173Z,15.47
2023-05-13T04:53:53.094Z,15.58
2023-05-13T04:54:35.403Z,15.61
2023-05-13T04:55:19.042Z,15.62
2023-05-13T04:56:00.963Z,15.66
2023-05-13T04:56:41.039Z,15.70
2023-05-13T04:57:21.172Z,15.65
2023-05-13T04:58:04.066Z,15.68
2023-05-13T04:58:44.164Z,15.61
2023-05-13T04:59:25.037Z,15.61
2023-05-13T05:00:05.433Z,15.55
2023-05-13T05:00:46.832Z,15.53
2023-05-13T05:01:27.170Z,15.38
2023-05-13T05:02:08.172Z,15.58
2023-05-13T05:02:48.269Z,15.60
2023-05-13T05:03:29.113Z,15.36
2023-05-13T05:04:09.163Z,15.49
2023-05-13T05:04:49.040Z,15.44
2023-05-13T05:05:29.125Z,15.39
2023-05-13T05:06:09.037Z,15.49
2023-05-13T05:06:49.181Z,15.47
2023-05-13T05:07:30.026Z,15.41
2023-05-13T05:08:10.299Z,15.32
2023-05-13T05:08:51.063Z,15.55
2023-05-13T05:09:31.136Z,15.56
2023-05-13T05:10:12.053Z,15.45
2023-05-13T05:10:52.309Z,15.38
2023-05-13T05:11:33.041Z,15.49
2023-05-13T05:12:14.141Z,15.54
2023-05-13T05:12:57.035Z,15.71
2023-05-13T05:13:49.122Z,15.72
2023-05-13T05:14:29.036Z,15.80
2023-05-13T05:15:16.209Z,15.50
2023-05-13T05:15:59.005Z,15.71
2023-05-13T05:16:39.143Z,15.72
2023-05-13T05:17:19.066Z,15.72
2023-05-13T05:17:59.235Z,15.79
2023-05-13T05:18:41.236Z,15.69
2023-05-13T05:19:24.090Z,15.68
2023-05-13T05:20:06.095Z,15.76
2023-05-13T05:20:46.210Z,15.80
2023-05-13T05:21:26.011Z,15.66
2023-05-13T05:22:06.209Z,15.88
2023-05-13T05:22:47.992Z,15.96
2023-05-13T05:23:28.138Z,15.83
2023-05-13T05:24:09.016Z,16.04
2023-05-13T05:24:49.104Z,16.04
2023-05-13T05:25:31.045Z,16.03
2023-05-13T05:26:12.701Z,16.10
2023-05-13T05:26:54.014Z,16.01
2023-05-13T05:27:34.104Z,15.95
2023-05-13T05:28:16.008Z,15.90
2023-05-13T05:28:58.501Z,15.86
2023-05-13T05:29:41.021Z,16.04
2023-05-13T05:30:22.354Z,16.00
2023-05-13T05:31:03.041Z,16.03
2023-05-13T05:31:43.135Z,15.99
2023-05-13T05:32:24.076Z,16.05
2023-05-13T05:33:04.181Z,15.92
2023-05-13T05:33:45.993Z,16.00
2023-05-13T05:34:26.390Z,16.14
2023-05-13T05:35:09.006Z,15.99
2023-05-13T05:35:49.107Z,16.03
2023-05-13T05:36:30.040Z,16.03
2023-05-13T05:37:10.115Z,16.08
2023-05-13T05:37:50.023Z,16.32
2023-05-13T05:38:30.123Z,16.33
2023-05-13T05:39:10.033Z,16.13
2023-05-13T05:39:50.243Z,16.20
2023-05-13T05:40:31.008Z,16.34
2023-05-13T05:41:11.112Z,16.32
2023-05-13T05:41:51.038Z,16.28
2023-05-13T05:42:31.103Z,16.37
2023-05-13T05:43:11.000Z,16.40
2023-05-13T05:43:51.276Z,16.51
2023-05-13T05:44:32.002Z,16.63
2023-05-13T05:45:13.133Z,16.44
2023-05-13T05:45:55.783Z,16.65
2023-05-13T05:46:36.222Z,16.56
2023-05-13T05:47:16.019Z,16.61
2023-05-13T05:47:57.588Z,16.67
2023-05-13T05:48:38.985Z,16.63
2023-05-13T05:49:19.099Z,16.59
2023-05-13T05:49:59.007Z,16.73
2023-05-13T05:50:40.178Z,16.72
2023-05-13T05:51:20.013Z,16.76
2023-05-13T05:52:00.117Z,16.79
2023-05-13T05:52:41.013Z,16.82
2023-05-13T05:53:21.253Z,16.85
2023-05-13T05:54:00.986Z,16.91
2023-05-13T05:54:41.555Z,16.86
2023-05-13T05:55:21.993Z,16.86
2023-05-13T05:56:02.078Z,16.97
2023-05-13T05:56:43.035Z,16.92
2023-05-13T05:57:23.129Z,16.98
2023-05-13T05:58:03.059Z,16.92
2023-05-13T05:58:43.102Z,17.10
2023-05-13T05:59:23.011Z,16.98
2023-05-13T06:00:03.349Z,17.00
2023-05-13T06:00:44.001Z,17.07
2023-05-13T06:01:28.075Z,17.11
2023-05-13T06:03:48.083Z,17.24
2023-05-13T06:04:25.153Z,17.11
2023-05-13T06:05:15.684Z,17.17
2023-05-13T06:05:49.082Z,17.08
2023-05-13T06:06:35.990Z,17.08
2023-05-13T06:07:10.135Z,16.92
2023-05-13T06:07:59.967Z,17.19
2023-05-13T06:08:37.082Z,17.14
2023-05-13T06:09:17.975Z,17.20
2023-05-13T06:09:58.149Z,17.14
2023-05-13T06:10:37.977Z,17.07
2023-05-13T06:11:18.053Z,17.28
2023-05-13T06:11:57.977Z,17.20
2023-05-13T06:12:38.116Z,17.33
2023-05-13T06:13:19.032Z,17.32
2023-05-13T06:14:01.136Z,17.43
2023-05-13T06:14:41.981Z,17.36
2023-05-13T06:15:22.280Z,17.55
2023-05-13T06:16:10.892Z,17.40
2023-05-13T06:16:51.731Z,17.47
2023-05-13T06:22:02.599Z,17.62
2023-05-13T06:22:58.375Z,17.60
2023-05-13T06:23:52.387Z,17.51
2023-05-13T06:24:49.398Z,17.56
2023-05-13T06:25:43.389Z,17.72
2023-05-13T06:26:38.411Z,17.61
2023-05-13T06:27:25.423Z,17.70
2023-05-13T06:28:00.832Z,17.83
2023-05-13T06:28:49.364Z,17.83
2023-05-13T06:29:23.591Z,17.83
2023-05-13T06:30:11.386Z,17.87
2023-05-13T06:30:45.998Z,17.78
2023-05-13T06:31:34.427Z,17.75
2023-05-13T06:32:08.479Z,17.70
2023-05-13T06:33:00.881Z,17.75
2023-05-13T06:33:41.449Z,17.99
2023-05-13T06:34:24.445Z,17.79
2023-05-13T06:35:04.538Z,17.90
2023-05-13T06:35:46.356Z,17.94
2023-05-13T06:36:26.465Z,17.95
2023-05-13T06:37:06.360Z,17.70
2023-05-13T06:37:46.505Z,17.92
2023-05-13T06:38:26.436Z,17.91
2023-05-13T06:39:07.468Z,18.08
2023-05-13T06:39:48.392Z,18.08
2023-05-13T06:40:28.498Z,18.06
2023-05-13T06:41:21.335Z,18.14
2023-05-13T06:42:01.488Z,18.12
2023-05-13T06:42:46.339Z,18.00
2023-05-13T06:43:33.380Z,18.03
2023-05-13T06:49:49.444Z,18.46
2023-05-13T06:50:43.365Z,18.40
2023-05-13T06:52:17.530Z,18.46
2023-05-13T07:11:52.425Z,18.67
2023-05-13T07:13:44.334Z,18.62
2023-05-13T07:16:10.362Z,18.92
2023-05-13T07:19:09.406Z,18.93
2023-05-13T07:20:47.322Z,18.99
2023-05-13T07:21:21.845Z,19.07
2023-05-13T07:22:18.335Z,19.18
2023-05-13T07:22:52.417Z,19.05
2023-05-13T07:23:32.424Z,19.18
2023-05-13T07:24:12.397Z,19.11
2023-05-13T07:24:55.667Z,19.05
2023-05-13T07:25:35.442Z,19.07
2023-05-13T07:26:15.298Z,19.22
2023-05-13T07:26:55.453Z,19.29
2023-05-13T07:27:35.289Z,19.15
2023-05-13T07:28:15.865Z,19.20
2023-05-13T07:28:56.324Z,19.41
2023-05-13T07:29:38.463Z,19.41
2023-05-13T07:30:19.349Z,19.43
2023-05-13T07:31:00.514Z,19.52
2023-05-13T07:31:42.382Z,19.51
2023-05-13T07:32:22.447Z,19.59
2023-05-13T07:33:02.411Z,19.42
2023-05-13T07:33:43.370Z,19.63
2023-05-13T07:34:23.387Z,19.42
2023-05-13T07:35:04.375Z,19.62
2023-05-13T07:35:44.303Z,19.41
2023-05-13T07:36:24.765Z,19.60
2023-05-13T07:37:05.316Z,19.65
2023-05-13T07:37:51.273Z,19.55
2023-05-13T07:38:32.319Z,19.54
2023-05-13T07:39:12.748Z,19.67
2023-05-13T07:39:53.501Z,19.62
2023-05-13T07:40:33.393Z,19.64
2023-05-13T07:41:13.274Z,19.46
2023-05-13T07:41:53.673Z,19.62
2023-05-13T07:42:36.436Z,19.64
2023-05-13T07:43:23.556Z,19.56
2023-05-13T07:44:03.283Z,19.72
2023-05-13T07:44:46.590Z,19.57
2023-05-13T07:45:26.320Z,19.68
2023-05-13T07:46:07.499Z,19.74
2023-05-13T07:46:48.341Z,19.55
2023-05-13T07:47:29.182Z,19.70
2023-05-13T07:48:10.404Z,19.63
2023-05-13T07:48:52.379Z,19.69
2023-05-13T07:49:32.343Z,19.70
2023-05-13T07:50:14.417Z,19.72
2023-05-13T07:50:54.338Z,19.71
2023-05-13T07:51:34.570Z,19.76
2023-05-13T07:52:14.294Z,19.68
2023-05-13T07:52:54.411Z,19.79
2023-05-13T07:53:35.287Z,19.77
2023-05-13T07:54:16.467Z,19.76
2023-05-13T07:54:56.297Z,19.85
2023-05-13T07:55:36.380Z,19.70
2023-05-13T07:56:16.569Z,19.83
2023-05-13T07:56:56.484Z,19.85
2023-05-13T07:57:36.289Z,19.77
2023-05-13T07:58:18.554Z,19.99
2023-05-13T07:58:59.342Z,19.88
2023-05-13T07:59:39.410Z,19.94
2023-05-13T08:00:20.297Z,20.04
2023-05-13T08:01:00.381Z,19.91
2023-05-13T08:01:42.291Z,19.94
2023-05-13T08:02:54.443Z,20.09
2023-05-13T08:03:34.464Z,20.15
2023-05-13T08:04:14.538Z,20.06
2023-05-13T08:04:54.336Z,20.01
2023-05-13T08:05:34.503Z,20.09
2023-05-13T08:06:15.265Z,20.07
2023-05-13T08:07:02.291Z,20.14
2023-05-13T08:07:56.286Z,20.17
2023-05-13T08:08:50.316Z,20.26
2023-05-13T08:09:44.289Z,20.23
2023-05-13T08:10:38.436Z,20.33
2023-05-13T08:11:33.300Z,20.45
2023-05-13T08:12:20.311Z,20.49
2023-05-13T08:12:57.680Z,20.40
2023-05-13T08:13:45.312Z,20.52
2023-05-13T08:14:19.450Z,20.49
2023-05-13T08:15:10.313Z,20.45
2023-05-13T08:15:45.845Z,20.42
2023-05-13T08:16:33.326Z,20.36
2023-05-13T08:17:07.843Z,20.37
2023-05-13T08:17:49.351Z,20.45
2023-05-13T08:18:30.645Z,20.49
2023-05-13T08:19:11.338Z,20.41
2023-05-13T08:19:51.374Z,20.37
2023-05-13T08:20:36.265Z,20.39
2023-05-13T08:21:16.376Z,20.40
2023-05-13T08:21:57.423Z,20.48
2023-05-13T08:22:38.432Z,20.42
2023-05-13T08:23:18.299Z,20.55
2023-05-13T08:23:58.394Z,20.54
2023-05-13T08:24:39.308Z,20.43
2023-05-13T08:25:19.551Z,20.51
2023-05-13T08:26:00.292Z,20.64
2023-05-13T08:26:40.338Z,20.58
2023-05-13T08:27:21.268Z,20.56
2023-05-13T08:28:01.658Z,20.62
2023-05-13T08:28:42.560Z,20.65
2023-05-13T08:29:23.426Z,20.67
2023-05-13T08:30:04.356Z,20.68
2023-05-13T08:30:44.587Z,20.81
2023-05-13T08:31:24.334Z,20.81
2023-05-13T08:32:04.447Z,20.76
2023-05-13T08:32:44.305Z,20.86
2023-05-13T08:33:26.549Z,20.91
2023-05-13T08:34:07.308Z,20.95
2023-05-13T08:34:47.420Z,20.85
2023-05-13T08:35:30.282Z,20.94
2023-05-13T08:36:10.536Z,20.89
2023-05-13T08:36:52.961Z,20.99
2023-05-13T08:37:33.404Z,21.08
2023-05-13T08:38:14.253Z,21.03
2023-05-13T08:38:54.421Z,21.20
2023-05-13T08:39:35.275Z,21.21
2023-05-13T08:40:17.409Z,21.09
2023-05-13T08:40:57.305Z,21.16
2023-05-13T08:41:37.360Z,21.15
2023-05-13T08:42:18.268Z,21.20
2023-05-13T08:42:59.378Z,21.32
2023-05-13T08:43:41.244Z,21.29
2023-05-13T08:44:21.483Z,21.38
2023-05-13T08:45:03.260Z,21.28
2023-05-13T08:45:47.404Z,21.29
2023-05-13T08:46:33.371Z,21.51
2023-05-13T08:47:42.385Z,21.47
2023-05-13T08:48:23.280Z,21.37
2023-05-13T08:49:04.346Z,21.32
2023-05-13T08:49:45.258Z,21.39
2023-05-13T08:50:27.312Z,21.37
2023-05-13T08:51:04.209Z,21.27
2023-05-13T08:51:52.272Z,21.40
2023-05-13T08:52:26.611Z,21.32
2023-05-13T08:53:14.298Z,21.36
2023-05-13T08:53:48.345Z,21.36
2023-05-13T08:54:36.260Z,21.30
2023-05-13T08:55:11.439Z,21.32
2023-05-13T08:55:52.265Z,21.39
2023-05-13T08:56:35.439Z,21.31
2023-05-13T08:57:15.226Z,21.36
2023-05-13T08:57:55.319Z,21.42
2023-05-13T08:58:36.265Z,21.54
2023-05-13T08:59:16.378Z,21.48
2023-05-13T08:59:56.252Z,21.48
2023-05-13T09:00:36.486Z,21.51
2023-05-13T09:01:17.288Z,21.61
2023-05-13T09:01:57.642Z,21.68
2023-05-13T09:02:38.268Z,21.67
2023-05-13T09:03:20.372Z,21.71
2023-05-13T09:04:11.231Z,21.74
2023-05-13T09:04:53.331Z,21.66
2023-05-13T09:05:35.739Z,21.72
2023-05-13T09:06:25.253Z,21.72
2023-05-13T09:07:20.259Z,21.62
2023-05-13T09:08:22.291Z,21.84
2023-05-13T09:09:16.226Z,21.90
2023-05-13T09:10:11.232Z,21.91
2023-05-13T09:11:05.222Z,21.96
2023-05-13T09:11:48.906Z,21.97
2023-05-13T09:12:57.382Z,22.22
2023-05-13T09:13:38.256Z,22.19
2023-05-13T09:14:18.344Z,22.20
2023-05-13T09:14:58.265Z,22.26
2023-05-13T09:15:39.412Z,22.21
2023-05-13T09:16:20.288Z,22.22
2023-05-13T09:17:04.280Z,22.22
2023-05-13T09:17:38.702Z,22.29
2023-05-13T09:18:26.425Z,22.22
2023-05-13T09:19:11.351Z,22.28
2023-05-13T09:19:58.302Z,22.32
2023-05-13T09:20:36.822Z,22.33
2023-05-13T09:21:40.671Z,22.33
2023-05-13T09:22:31.293Z,22.19
2023-05-13T09:23:26.274Z,22.37
2023-05-13T09:24:31.285Z,22.40
2023-05-13T09:25:27.295Z,22.46
2023-05-13T09:26:41.263Z,22.48
2023-05-13T09:27:51.213Z,22.50
2023-05-13T09:28:45.209Z,22.36
2023-05-13T09:29:41.212Z,22.42
2023-05-13T09:30:35.215Z,22.56
2023-05-13T09:31:46.410Z,22.53
2023-05-13T09:32:40.222Z,22.63
2023-05-13T09:33:26.992Z,22.60
2023-05-13T09:34:12.663Z,22.61
2023-05-13T09:34:55.257Z,22.57
2023-05-13T09:35:38.347Z,22.50
2023-05-13T09:36:18.232Z,22.51
2023-05-13T09:37:13.356Z,22.56
2023-05-13T09:37:55.228Z,22.51
2023-05-13T09:38:47.835Z,22.58
2023-05-13T09:39:43.295Z,22.45
2023-05-13T09:40:37.226Z,22.51
2023-05-13T09:41:33.214Z,22.46
2023-05-13T09:42:33.248Z,22.52
2023-05-13T09:43:27.286Z,22.50
2023-05-13T09:44:11.240Z,22.59
2023-05-13T09:44:52.429Z,22.61
2023-05-13T09:45:33.220Z,22.60
2023-05-13T09:46:16.450Z,22.55
2023-05-13T09:46:59.373Z,22.53
2023-05-13T09:47:39.393Z,22.53
2023-05-13T09:48:21.588Z,22.59
2023-05-13T09:49:05.676Z,22.61
2023-05-13T09:49:50.234Z,22.48
2023-05-13T09:50:32.659Z,22.37
2023-05-13T09:51:12.214Z,22.48
2023-05-13T09:51:52.374Z,22.48
2023-05-13T09:52:32.710Z,22.57
2023-05-13T09:53:22.844Z,22.34
2023-05-13T09:54:14.306Z,22.42
2023-05-13T09:55:01.219Z,22.47
2023-05-13T09:56:02.228Z,22.56
2023-05-13T09:56:56.183Z,22.50
2023-05-13T09:57:50.227Z,22.60
2023-05-13T09:58:44.219Z,22.57
2023-05-13T09:59:38.232Z,22.61
2023-05-13T10:00:32.753Z,22.61
2023-05-13T10:01:08.352Z,22.51
2023-05-13T10:01:55.289Z,22.67
2023-05-13T10:02:31.323Z,22.62
2023-05-13T10:03:18.213Z,22.59
2023-05-13T10:03:52.271Z,22.50
2023-05-13T10:04:40.232Z,22.67
2023-05-13T10:05:16.471Z,22.55
2023-05-13T10:06:01.299Z,22.70
2023-05-13T10:06:52.358Z,22.71
2023-05-13T10:07:33.212Z,22.63
2023-05-13T10:08:19.275Z,22.70
2023-05-13T10:09:03.261Z,22.61
2023-05-13T10:09:46.306Z,22.73
2023-05-13T10:10:27.203Z,22.64
2023-05-13T10:11:15.390Z,22.61
2023-05-13T10:12:10.236Z,22.72
2023-05-13T10:13:06.248Z,22.63
2023-05-13T10:14:08.343Z,22.67
2023-05-13T10:15:09.196Z,22.65
2023-05-13T10:16:11.221Z,22.68
2023-05-13T10:16:54.322Z,22.58
2023-05-13T10:17:36.380Z,22.66
2023-05-13T10:18:17.285Z,22.73
2023-05-13T10:19:03.293Z,22.79
2023-05-13T10:19:44.259Z,22.70
2023-05-13T10:20:24.626Z,22.62
2023-05-13T10:21:06.186Z,22.73
2023-05-13T10:21:47.304Z,22.80
2023-05-13T10:22:38.191Z,22.84
2023-05-13T10:23:19.302Z,22.91
2023-05-13T10:24:03.177Z,22.93
2023-05-13T10:24:45.352Z,22.93
2023-05-13T10:25:26.262Z,22.88
2023-05-13T10:26:10.362Z,22.88
2023-05-13T10:26:52.199Z,22.97
2023-05-13T10:27:45.215Z,22.96
2023-05-13T10:28:40.204Z,23.04
2023-05-13T10:29:36.232Z,23.10
2023-05-13T10:30:33.236Z,23.16
2023-05-13T10:31:28.318Z,23.17
2023-05-13T10:32:23.218Z,23.27
2023-05-13T10:33:15.538Z,23.27
2023-05-13T10:33:50.337Z,23.26
2023-05-13T10:34:40.187Z,23.38
2023-05-13T10:35:15.372Z,23.27
2023-05-13T10:36:45.167Z,23.20
2023-05-13T10:38:01.735Z,23.37
2023-05-13T10:39:19.297Z,23.50
2023-05-13T10:40:36.310Z,23.55
2023-05-13T10:41:37.237Z,23.30
2023-05-13T10:42:48.280Z,23.46
2023-05-13T10:43:38.032Z,23.54
2023-05-13T10:44:18.279Z,23.53
2023-05-13T10:45:02.200Z,23.63
2023-05-13T10:45:42.266Z,23.67
2023-05-13T10:46:26.240Z,23.73
2023-05-13T10:47:06.426Z,23.82
2023-05-13T10:47:46.251Z,23.80
2023-05-13T10:48:29.398Z,23.73
2023-05-13T10:49:11.234Z,23.78
2023-05-13T10:50:11.182Z,23.74
2023-05-13T10:51:17.173Z,23.71
2023-05-13T10:52:21.167Z,23.77
2023-05-13T10:53:15.157Z,23.94
2023-05-13T10:54:11.157Z,24.14
2023-05-13T10:55:17.490Z,24.14
2023-05-13T10:56:18.202Z,24.12
2023-05-13T10:57:13.250Z,24.06
2023-05-13T10:58:29.155Z,23.99
2023-05-13T10:59:26.199Z,24.05
2023-05-13T11:00:29.189Z,24.01
2023-05-13T11:01:32.256Z,24.03
2023-05-13T11:02:38.208Z,24.11
2023-05-13T11:03:33.800Z,24.23
2023-05-13T11:04:32.160Z,24.24
2023-05-13T11:05:34.182Z,24.24
2023-05-13T11:06:37.389Z,24.08
2023-05-13T11:07:35.562Z,24.20
2023-05-13T11:08:56.346Z,24.38
2023-05-13T11:09:52.156Z,24.33
2023-05-13T11:10:50.235Z,24.38
2023-05-13T11:11:49.166Z,24.49
2023-05-13T11:12:43.182Z,24.53
2023-05-13T11:13:53.424Z,24.39
2023-05-13T11:14:47.131Z,24.46
2023-05-13T11:16:03.219Z,24.36
2023-05-13T11:17:08.175Z,24.36
2023-05-13T11:18:02.262Z,24.15
2023-05-13T11:18:56.233Z,24.22
2023-05-13T11:19:34.493Z,24.29
2023-05-13T11:20:24.213Z,24.33
2023-05-13T11:21:11.187Z,24.42
2023-05-13T11:21:58.294Z,24.45
2023-05-13T11:22:38.138Z,24.58
2023-05-13T11:23:25.376Z,24.70
2023-05-13T11:24:10.131Z,24.60
2023-05-13T11:25:14.382Z,24.64
2023-05-13T11:26:15.148Z,24.65
2023-05-13T11:27:04.800Z,24.44
2023-05-13T11:27:47.128Z,24.50
2023-05-13T11:30:04.511Z,24.59
2023-05-13T11:30:44.242Z,24.50
2023-05-13T11:31:24.188Z,24.46
2023-05-13T11:32:05.311Z,24.51
2023-05-13T11:33:05.325Z,24.46
2023-05-13T11:34:23.225Z,24.49
2023-05-13T11:35:03.115Z,24.66
2023-05-13T11:35:44.255Z,25.11
2023-05-13T11:36:24.198Z,25.28
2023-05-13T11:37:15.268Z,25.31
2023-05-13T11:38:00.100Z,25.29
2023-05-13T11:38:40.265Z,25.36
2023-05-13T11:39:29.135Z,25.22
2023-05-13T11:40:10.223Z,25.20
2023-05-13T11:40:50.112Z,25.07
2023-05-13T11:41:39.240Z,25.08
2023-05-13T11:42:12.990Z,25.04
2023-05-13T11:43:00.152Z,25.02
2023-05-13T11:43:34.799Z,24.96
2023-05-13T11:44:23.201Z,25.04
2023-05-13T11:44:59.304Z,24.93
2023-05-13T11:45:47.193Z,25.00
2023-05-13T11:46:23.374Z,25.02
2023-05-13T11:47:06.262Z,24.96
2023-05-13T11:47:40.237Z,24.81
2023-05-13T11:48:23.381Z,24.97
2023-05-13T11:49:06.504Z,24.85
2023-05-13T11:49:53.404Z,24.92
2023-05-13T11:50:32.297Z,24.81
2023-05-13T11:51:13.135Z,24.73
2023-05-13T11:51:47.301Z,24.77
2023-05-13T11:52:28.150Z,24.69
2023-05-13T11:53:09.193Z,24.82
2023-05-13T11:53:50.132Z,24.86
2023-05-13T11:54:30.465Z,24.87
2023-05-13T11:55:10.102Z,24.92
2023-05-13T11:55:51.643Z,24.92
2023-05-13T11:56:36.180Z,24.79
2023-05-13T11:57:40.270Z,24.94
2023-05-13T11:58:17.478Z,25.22
2023-05-13T11:59:04.114Z,25.39
2023-05-13T11:59:47.518Z,25.67
2023-05-13T12:00:47.115Z,25.90
2023-05-13T12:01:21.351Z,26.37
2023-05-13T12:03:19.177Z,26.70
2023-05-13T12:04:08.584Z,26.72
2023-05-13T12:04:52.115Z,26.59
2023-05-13T12:05:33.247Z,26.60
2023-05-13T12:06:13.129Z,26.58
2023-05-13T12:06:53.210Z,26.57
2023-05-13T12:07:34.109Z,26.38
2023-05-13T12:08:16.188Z,26.50
2023-05-13T12:08:56.168Z,26.46
2023-05-13T12:09:36.244Z,26.40